Airfield :
LOGIN :

Register | Disclaimer

   EN    FR    IT 

 










Legend :    VFR   Marginal VFR   IFR   Intensive IFR   Very Intensive IFR
Visi :
Ceiling :
>= 8 km
>= 3000ft
5 to 8 km
1000 to 3000 ft
1500m to 5 km
500 to 1000 ft
800 to 1500m
200 to 500 ft
< 800m
< 200 ft
Symbols :   Thunderstorms  Fog  Heavy snow  Heavy precipitations  Wind > 20 kt
SIGMETs :     Misc.  Thunderstorms  Icing  Turbulence  Mountain Waves  Volcanic Ashes







- Airport Elevation : 336 ft
- IATA code : GCI
- Download approach charts


EGJB - Guernsey

CURRENT METAR :
  • 190420Z 07015KT 9999 FEW022 08/03 Q1017

EXPIRED METARs :
  • 190350Z 07013KT 9999 FEW022 08/03 Q1017
  • 190250Z 07013KT 9999 FEW020 08/04 Q1018
  • 190150Z 08013KT 9999 FEW020 08/05 Q1018

TAF TAF EGJB
Valid from the 19 at 03:00 until the 19 at 12:00 UTC


190200Z 1903/1912 08018KT 9999 FEW018
ATIS : +44 1481 238 957
No reported NOTAMs for that airfield.
2 SIGMETs reported for the Brest FIR (LFRR) :
 
Severe turbulence
LFRR SIGMET 2 VALID 190400/190800 LFPW
LFRR BREST FIR/UIR SEV TURB FCST SW OF LINE N4400 W00145 - N4645 W00800 FL180/320 MOV S 10KT NC=
Severe turbulence
LFRR SIGMET 1 VALID 190300/190700 LFPW
LFRR BREST FIR/UIR SEV TURB FCST WI N4545 W00145 - N4500 W00145 - N4545 W00230 - N4545 W00145 FL200/270 MOV SW 20KT NC=



MET'MAP, your aeronautical weather chart ! - Copyright ORBIFLY December 2007 - Disclaimer

ORBIFLY MET'MAP TEAM :

Programming & Development : Alexandra Zaïnal
Concept & Development : Baudouin d'Aumeries
Co-Development & Prog : Marc-Olivier Méhu
Technical & hardware support : Manuel Goepfert

Contact : metmap@orbifly.com




SOURCES & CREDITS :

   NOAA